Squall — ZCIF2 — position and weather

sailwx.info

Track history (hours):
 
Tides and Currents Weather Stations Pressure Air Temp Water Temp Dewpoint Dewpoint Depression Visibility Wind Speed Wind Dir Waves Ship Positions

Squall

Last reported at 2014-Nov-28 00:33 UTC. Time now 2014-Nov-28 01:16 UTC.
Position N 44°05' E 009°52'.

Length 55 m; draft 5 m.

Type: Sailing vessel. MMSI: 319811000.

Date/timePositionNaut miles runAvg speedWind from/ knotsBaromVisibWave heightAir tempDewpointWater temp
2014-Nov-28 00:33N 44°05' E 009°52'0 0.0
2014-Nov-27 23:33N 44°05' E 009°52'0 0.0
2014-Nov-27 22:33N 44°05' E 009°52'0 0.0
2014-Nov-27 21:33N 44°05' E 009°52'0 0.0
2014-Nov-27 20:33N 44°05' E 009°52'0 0.0
2014-Nov-27 19:33N 44°05' E 009°52'0 0.0
2014-Nov-27 18:33N 44°05' E 009°52'0 0.0
2014-Nov-27 17:33N 44°05' E 009°52'0 0.0
2014-Nov-27 16:27N 44°05' E 009°52'0 0.0
2014-Nov-27 15:33N 44°05' E 009°52'0 0.0
2014-Nov-27 14:33N 44°05' E 009°52'0 0.0
2014-Nov-27 13:33N 44°05' E 009°52'0 0.0
2014-Nov-27 12:30N 44°05' E 009°52'0 0.0
2014-Nov-27 11:30N 44°05' E 009°52'0 0.0
2014-Nov-27 10:30N 44°05' E 009°52'0 0.0
2014-Nov-27 09:33N 44°05' E 009°52'0 0.0
2014-Nov-27 08:33N 44°05' E 009°52'1 0.5
2014-Nov-27 07:32N 44°05' E 009°52'0 0.0
2014-Nov-27 06:32N 44°05' E 009°52'0 0.0
2014-Nov-27 05:32N 44°05' E 009°52'0 0.0
2014-Nov-27 04:32N 44°05' E 009°52'0 0.0
2014-Nov-27 03:32N 44°05' E 009°52'0 0.0
2014-Nov-27 02:32N 44°05' E 009°52'0 0.0
2014-Nov-27 01:32N 44°05' E 009°52'0 0.0
2014-Nov-27 00:32N 44°05' E 009°52'0 0.0
2014-Nov-26 23:32N 44°05' E 009°52'0 0.0
2014-Nov-26 22:32N 44°05' E 009°52'0 0.0
2014-Nov-26 21:32N 44°05' E 009°52'0 0.0
2014-Nov-26 20:32N 44°05' E 009°52'0 0.0
2014-Nov-26 19:32N 44°05' E 009°52'0 0.0
2014-Nov-26 18:32N 44°05' E 009°52'0 0.0
2014-Nov-26 17:32N 44°05' E 009°52'0 0.4
2014-Nov-26 16:33N 44°05' E 009°51'2 2.2
2014-Nov-26 15:34N 44°03' E 009°52'10 9.5
2014-Nov-26 14:33N 43°60' E 009°40'1111.1
2014-Nov-26 13:33N 43°58' E 009°24'1110.7
2014-Nov-26 12:34N 43°57' E 009°09'1110.9
2014-Nov-26 11:33N 43°55' E 008°55'1110.8
2014-Nov-26 10:34N 43°53' E 008°40'  
Track history (hours):
 
Tides and Currents Weather Stations Pressure Air Temp Water Temp Dewpoint Dewpoint Depression Visibility Wind Speed Wind Dir Waves Ship Positions

Squall

Last reported at 2014-Nov-28 00:33 UTC. Time now 2014-Nov-28 01:16 UTC.
Position N 44°05' E 009°52'.

Length 55 m; draft 5 m.

Type: Sailing vessel. MMSI: 319811000.

Date/timePositionNaut miles runAvg speedWind from/ knotsBaromVisibWave heightAir tempDewpointWater temp
2014-Nov-28 00:33N 44°05' E 009°52'0 0.0
2014-Nov-27 23:33N 44°05' E 009°52'0 0.0
2014-Nov-27 22:33N 44°05' E 009°52'0 0.0
2014-Nov-27 21:33N 44°05' E 009°52'0 0.0
2014-Nov-27 20:33N 44°05' E 009°52'0 0.0
2014-Nov-27 19:33N 44°05' E 009°52'0 0.0
2014-Nov-27 18:33N 44°05' E 009°52'0 0.0
2014-Nov-27 17:33N 44°05' E 009°52'0 0.0
2014-Nov-27 16:27N 44°05' E 009°52'0 0.0
2014-Nov-27 15:33N 44°05' E 009°52'0 0.0
2014-Nov-27 14:33N 44°05' E 009°52'0 0.0
2014-Nov-27 13:33N 44°05' E 009°52'0 0.0
2014-Nov-27 12:30N 44°05' E 009°52'0 0.0
2014-Nov-27 11:30N 44°05' E 009°52'0 0.0
2014-Nov-27 10:30N 44°05' E 009°52'0 0.0
2014-Nov-27 09:33N 44°05' E 009°52'0 0.0
2014-Nov-27 08:33N 44°05' E 009°52'1 0.5
2014-Nov-27 07:32N 44°05' E 009°52'0 0.0
2014-Nov-27 06:32N 44°05' E 009°52'0 0.0
2014-Nov-27 05:32N 44°05' E 009°52'0 0.0
2014-Nov-27 04:32N 44°05' E 009°52'0 0.0
2014-Nov-27 03:32N 44°05' E 009°52'0 0.0
2014-Nov-27 02:32N 44°05' E 009°52'0 0.0
2014-Nov-27 01:32N 44°05' E 009°52'0 0.0
2014-Nov-27 00:32N 44°05' E 009°52'0 0.0
2014-Nov-26 23:32N 44°05' E 009°52'0 0.0
2014-Nov-26 22:32N 44°05' E 009°52'0 0.0
2014-Nov-26 21:32N 44°05' E 009°52'0 0.0
2014-Nov-26 20:32N 44°05' E 009°52'0 0.0
2014-Nov-26 19:32N 44°05' E 009°52'0 0.0
2014-Nov-26 18:32N 44°05' E 009°52'0 0.0
2014-Nov-26 17:32N 44°05' E 009°52'0 0.4
2014-Nov-26 16:33N 44°05' E 009°51'2 2.2
2014-Nov-26 15:34N 44°03' E 009°52'10 9.5
2014-Nov-26 14:33N 43°60' E 009°40'1111.1
2014-Nov-26 13:33N 43°58' E 009°24'1110.7
2014-Nov-26 12:34N 43°57' E 009°09'1110.9
2014-Nov-26 11:33N 43°55' E 008°55'1110.8
2014-Nov-26 10:34N 43°53' E 008°40'  

Dump ship's entire track history